Current Metar reports for airports in our Region

Nearby METAR Reports

Metar reports are mainly used by pilots for information on what is happening at their destination during their pre-flight weather briefings and by meteorologists to assist in short term forecasts. A raw Metar is one of the most universal ways to communicate weather information in the world and are usually transmitted by airports, but some come from permanent sanctioned weather observatories.

Listed below are Metars from airports within 100 miles of our station here in Smethport Pa. The first one of course is the Bradford Regional Airport, then the Olean NY airport and so on. Each airport has it's own table to display it's data and at the bottom of the table is 'Raw' Metar for each airport. Most pilots and weather forecasters can look at the raw data and tell you what is up, but we use a script that handles all of the details for us.

KBFD - Bradford, Pennsylvania, USA
Distance from our station: NW 7mi
Updated: Thu, 23-Nov-2017 6:53pm EST
Overcast
Overcast
 Wind from SW
Wind:: SW 5 mph
Temperature: 30°F
Wind Chill: 25°F
Dew Point: 19°F
Humidity: 64%
Barometer: 29.94 inHg
Clouds: Overcast
Visibility: 10 miles
Cloud details: Partly Cloudy 6000 ft
Overcast 9000 ft
2017/11/23 23:53 KBFD 232353Z AUTO 23004KT 10SM SCT060 OVC090 M01/M07 A2994 RMK AO2 SLP160 T10061067 10000 21011 55001
KOLE - Olean, New York, USA
Distance from our station: NNE 37mi
Updated: Thu, 23-Nov-2017 6:55pm EST
Overcast
Overcast
 Wind from SW
Wind:: SW 5 mph
Temperature: 30°F
Wind Chill: 25°F
Dew Point: 21°F
Humidity: 69%
Barometer: 29.92 inHg
Clouds: Overcast
Visibility: 10 miles
Cloud details: Mostly Cloudy 4000 ft
Overcast 5000 ft
2017/11/23 23:55 KOLE 232355Z AUTO 23004KT 10SM BKN040 OVC050 M01/M06 A2992 RMK AO2
 
KELZ - Wellsville, New York, USA
Distance from our station: NE 40mi
Updated: Thu, 23-Nov-2017 6:56pm EST
Overcast
Overcast
 Wind from WSW
Wind:: WSW 7 mph
Temperature: 34°F
Wind Chill: 28°F
Dew Point: 19°F
Humidity: 56%
Barometer: 29.94 inHg
Clouds: Overcast
Visibility: 10 miles
Cloud details: Overcast 5500 ft
2017/11/23 23:56 KELZ 232356Z AUTO 25006KT 10SM OVC055 01/M07 A2994 RMK AO2 SLP161 T00111067 10017 20006 55002 $
KDUJ - Du Bois, Pennsylvania, USA
Distance from our station: SSW 42mi
Updated: Thu, 23-Nov-2017 6:53pm EST
Partly Cloudy
Partly Cloudy
 Wind from SW
Wind:: SW 5 mph
Temperature: 30°F
Wind Chill: 25°F
Dew Point: 19°F
Humidity: 64%
Barometer: 29.96 inHg
Clouds: Partly Cloudy
Visibility: 10 miles
Cloud details: Partly Cloudy 9000 ft
2017/11/23 23:53 KDUJ 232353Z AUTO 23004KT 10SM SCT090 M01/M07 A2996 RMK AO2 SLP165 T10111072 10011 21011 56005
 
KJHW - Jamestown, New York, USA
Distance from our station: NW 46mi
Updated: Thu, 23-Nov-2017 6:56pm EST
Overcast
Overcast
 Wind from SSW
Wind:: SSW 9 mph
Temperature: 30°F
Wind Chill: 22°F
Dew Point: 21°F
Humidity: 69%
Barometer: 29.95 inHg
Clouds: Overcast
Visibility: 10 miles
Cloud details: Mostly Cloudy 3500 ft
Mostly Cloudy 4200 ft
Overcast 5000 ft
2017/11/23 23:56 KJHW 232356Z AUTO 21008KT 10SM BKN035 BKN042 OVC050 M01/M06 A2995 RMK AO2 SLP168 T10061056 10000 21011 53001 FZRANO
KFIG - Clearfield, Pennsylvania, USA
Distance from our station: S 47mi
Updated: Thu, 23-Nov-2017 6:54pm EST
Overcast
Overcast
 Wind from SSW
Wind:: SSW 6 mph
Temperature: 32°F
Wind Chill: 26°F
Dew Point: 19°F
Humidity: 60%
Barometer: 29.98 inHg
Clouds: Overcast
Visibility: 10 miles
Cloud details: Overcast 9500 ft
2017/11/23 23:54 KFIG 232354Z AUTO 20005KT 10SM OVC095 00/M07 A2998 RMK AO2 SLP169 T00001067 10033 20000 55005
 
KDKK - Dunkirk, New York, USA
Distance from our station: NW 66mi
Updated: Thu, 23-Nov-2017 6:53pm EST
Overcast
Overcast
 Wind from SSW
Wind:: SSW 8 mph
Temperature: 36°F
Wind Chill: 30°F
Dew Point: 23°F
Humidity: 60%
Barometer: 29.98 inHg
Clouds: Overcast
Visibility: 10 miles
Cloud details: Few Clouds 4200 ft
Overcast 6000 ft
2017/11/23 23:53 KDKK 232353Z AUTO 21007KT 10SM FEW042 OVC060 02/M05 A2998 RMK AO2 SLP160 T00221050 10028 20017 55002
KUNV - State College, Pennsylvania, USA
Distance from our station: SSE 71mi
Updated: Thu, 23-Nov-2017 6:53pm EST
Clear
Clear
 Wind from W
Wind:: W 5 mph
Temperature: 34°F
Wind Chill: 29°F
Dew Point: 18°F
Humidity: 51%
Barometer: 30.00 inHg
Clouds: Clear
Visibility: 10 miles
2017/11/23 23:53 KUNV 232353Z 28004KT 10SM SKC 01/M08 A3000
 
KFKL - Franklin, Pennsylvania, USA
Distance from our station: WSW 72mi
Updated: Thu, 23-Nov-2017 6:56pm EST
Overcast
Overcast
 Wind from SSW
Wind:: SSW 6 mph
Temperature: 34°F
Wind Chill: 29°F
Dew Point: 19°F
Humidity: 56%
Barometer: 29.98 inHg
Clouds: Overcast
Visibility: 10 miles
Cloud details: Overcast 5000 ft
2017/11/23 23:56 KFKL 232356Z AUTO 21005KT 10SM OVC050 01/M07 A2998 RMK AO2 SLP170 6//// T00061067 10011 21006 55003 FZRANO
KDSV - Dansville, New York, USA
Distance from our station: NE 73mi
Updated: Thu, 23-Nov-2017 6:54pm EST
Overcast
Overcast
 Wind from calm
Wind:: Calm
Temperature: 36°F
Dew Point: 27°F
Humidity: 70%
Barometer: 29.97 inHg
Clouds: Overcast
Visibility: 10 miles
Cloud details: Overcast 6000 ft
2017/11/23 23:54 KDSV 232354Z AUTO 00000KT 10SM OVC060 02/M03 A2997 RMK AO2 SLP166 T00171033 10022 20011 53001
 
KIDI - Indiana/Stewart, Pennsylvania, USA
Distance from our station: SSW 81mi
Updated: Thu, 23-Nov-2017 6:55pm EST
Clear
Clear
 Wind from calm
Wind:: Calm
Temperature: 32°F
Dew Point: 23°F
Humidity: 69%
Barometer: 30.04 inHg
Clouds: Clear
Visibility: 10 miles
2017/11/23 23:55 KIDI 232355Z AUTO 00000KT 10SM CLR M00/M05 A3004 RMK A01
KBUF - Buffalo/Cheektow, New York, USA
Distance from our station: N 84mi
Updated: Thu, 23-Nov-2017 6:54pm EST
Overcast
Overcast
 Wind from SSW
Wind:: SSW 10 mph
Temperature: 36°F
Wind Chill: 29°F
Dew Point: 25°F
Humidity: 65%
Barometer: 29.96 inHg
Clouds: Overcast
Visibility: 10 miles
Cloud details: Mostly Cloudy 2900 ft
Overcast 3800 ft
2017/11/23 23:54 KBUF 232354Z 21009KT 10SM BKN029 OVC038 02/M04 A2996 RMK AO2 SLP152 T00221044 10028 20006 53003 $
 
KGKJ - Meadville, Pennsylvania, USA
Distance from our station: W 86mi
Updated: Thu, 23-Nov-2017 6:53pm EST
Overcast
Overcast
 Wind from SSW
Wind:: SSW 7 mph
Temperature: 34°F
Wind Chill: 28°F
Dew Point: 23°F
Humidity: 65%
Barometer: 29.98 inHg
Clouds: Overcast
Visibility: 10 miles
Cloud details: Overcast 5500 ft
2017/11/23 23:53 KGKJ 232353Z AUTO 21006KT 10SM OVC055 01/M05 A2998 RMK AO2 SLP164 T00111050 10011 20000 55001
KERI - Erie, Pennsylvania, USA
Distance from our station: WNW 87mi
Updated: Thu, 23-Nov-2017 6:51pm EST
Overcast
Overcast
 Wind from SSW
Wind:: SSW 9 mph
Temperature: 37°F
Wind Chill: 30°F
Dew Point: 23°F
Humidity: 56%
Barometer: 29.99 inHg
Clouds: Overcast
Visibility: 10 miles
Cloud details: Few Clouds 4700 ft
Mostly Cloudy 6000 ft
Overcast 8000 ft
2017/11/23 23:51 KERI 232351Z 21008KT 10SM FEW047 BKN060 OVC080 03/M05 A2999 RMK AO2 SLP162 T00281050 10028 20022 55002 VISNO NE
 
KELM - Elmira, New York, USA
Distance from our station: ENE 90mi
Updated: Thu, 23-Nov-2017 6:53pm EST
Overcast
Overcast
 Wind from calm
Wind:: Calm
Temperature: 34°F
Dew Point: 27°F
Humidity: 75%
Barometer: 29.97 inHg
Clouds: Overcast
Visibility: 10 miles
Cloud details: Mostly Cloudy 8000 ft
Overcast 10000 ft
2017/11/23 23:53 KELM 232353Z 00000KT 10SM BKN080 OVC100 01/M03 A2997 RMK AO2 SLP158 T00111033 10028 20011 56005
KIPT - Williamsport, Pennsylvania, USA
Distance from our station: ESE 91mi
Updated: Thu, 23-Nov-2017 6:54pm EST
Clear
Clear
 Wind from ENE
Wind:: ENE 3 mph
Temperature: 36°F
Dew Point: 21°F
Humidity: 56%
Barometer: 30.01 inHg
Clouds: Clear
Visibility: 10 miles
2017/11/23 23:54 KIPT 232354Z 06003KT 10SM CLR 02/M06 A3001 RMK AO2 SLP169 T00171056 10050 20006 55004
 
KBTP - Butler Co., Pennsylvania, USA
Distance from our station: SW 98mi
Updated: Thu, 23-Nov-2017 6:56pm EST
Overcast
Overcast
 Wind from calm
Wind:: Calm
Temperature: 32°F
Dew Point: 21°F
Humidity: 64%
Barometer: 30.01 inHg
Clouds: Overcast
Visibility: 10 miles
Cloud details: Overcast 6000 ft
2017/11/23 23:56 KBTP 232356Z AUTO 00000KT 10SM OVC060 00/M06 A3001 RMK AO2 SLP183 T00001056 10033 20000 55003 FZRANO
KAOO - Altoona, Pennsylvania, USA
Distance from our station: S 99mi
Updated: Thu, 23-Nov-2017 6:53pm EST
Clear
Clear
 Wind from SW
Wind:: SW 5 mph
Temperature: 37°F
Wind Chill: 33°F
Dew Point: 18°F
Humidity: 45%
Barometer: 29.99 inHg
Clouds: Clear
Visibility: 10 miles
2017/11/23 23:53 KAOO 232353Z AUTO 22004KT 10SM CLR 03/M08 A2999 RMK AO2 SLP170 T00331083 10061 20017 55001
 
KPIT - Pittsburg, Pennsylvania, USA
Distance from our station: SSW 126mi
Updated: Thu, 23-Nov-2017 6:51pm EST
Mostly Cloudy
Mostly Cloudy
 Wind from SW
Wind:: SW 3 mph
Temperature: 37°F
Dew Point: 21°F
Humidity: 52%
Barometer: 30.00 inHg
Clouds: Mostly Cloudy
Visibility: 10 miles
Cloud details: Partly Cloudy 6000 ft
Mostly Cloudy 12000 ft
2017/11/23 23:51 KPIT 232351Z 22003KT 10SM SCT060 BKN120 03/M06 A3000 RMK AO2 SLP180 T00281056 10044 20022 55005 $
KCLE - Cleveland, Ohio, USA
Distance from our station: WSW 160mi
Updated: Thu, 23-Nov-2017 6:51pm EST
Mostly Cloudy
Mostly Cloudy
 Wind from SSW
Wind:: SSW 9 mph
Temperature: 37°F
Wind Chill: 30°F
Dew Point: 25°F
Humidity: 60%
Barometer: 30.02 inHg
Clouds: Mostly Cloudy
Visibility: 10 miles
Cloud details: Mostly Cloudy 6000 ft
2017/11/23 23:51 KCLE 232351Z 20008KT 10SM BKN060 03/M04 A3002 RMK AO2 SLP174 T00281044 10044 20022 53003